Time,TemperatureF,DewpointF,PressureIn,WindDirection,WindDirectionDegrees,WindSpeedMPH,WindSpeedGustMPH,Humidity,HourlyPrecipIn,Conditions,Clouds,dailyrainin,SoftwareType,DateUTC
2013-02-27 00:01:00,44.0,33.0,30.19,SSE,162,5.0,16.0,66,-99.99,,,-99.99,,2013-02-27 05:01:00,
2013-02-27 00:11:00,44.0,33.0,30.19,SSE,162,5.0,16.0,66,-99.99,,,-99.99,,2013-02-27 05:11:00,
2013-02-27 00:21:00,44.0,34.0,30.19,SSE,164,3.0,10.0,67,-99.99,,,-99.99,,2013-02-27 05:21:00,
2013-02-27 00:32:00,44.0,34.0,30.19,SE,146,2.0,7.0,67,-99.99,,,-99.99,,2013-02-27 05:32:00,
2013-02-27 00:41:00,44.0,34.0,30.19,SE,146,2.0,7.0,67,-99.99,,,-99.99,,2013-02-27 05:41:00,
2013-02-27 00:52:00,44.0,34.0,30.19,South,173,0.0,4.0,67,-99.99,,,-99.99,,2013-02-27 05:52:00,
2013-02-27 01:02:00,44.0,34.0,30.19,SE,146,3.0,6.0,69,-99.99,,,-99.99,,2013-02-27 06:02:00,
2013-02-27 01:11:00,44.0,34.0,30.19,SE,146,3.0,6.0,69,-99.99,,,-99.99,,2013-02-27 06:11:00,
2013-02-27 01:21:00,44.0,35.0,30.18,SE,126,1.0,5.0,70,-99.99,,,-99.99,,2013-02-27 06:21:00,
2013-02-27 01:32:00,43.0,34.0,30.18,SSE,167,1.0,4.0,71,-99.99,,,-99.99,,2013-02-27 06:32:00,
2013-02-27 01:41:00,43.0,34.0,30.18,SSE,167,1.0,4.0,71,-99.99,,,-99.99,,2013-02-27 06:41:00,
2013-02-27 01:52:00,43.0,35.0,30.18,SSE,166,0.0,1.0,73,-99.99,,,-99.99,,2013-02-27 06:52:00,
2013-02-27 02:01:00,43.0,35.0,30.18,ESE,110,3.0,6.0,74,-99.99,,,-99.99,,2013-02-27 07:01:00,
2013-02-27 02:11:00,43.0,35.0,30.18,ESE,110,3.0,6.0,74,-99.99,,,-99.99,,2013-02-27 07:11:00,
2013-02-27 02:21:00,43.0,35.0,30.18,SSE,152,0.0,3.0,73,-99.99,,,-99.99,,2013-02-27 07:21:00,
2013-02-27 02:31:00,43.0,35.0,30.18,SSE,164,1.0,5.0,74,-99.99,,,-99.99,,2013-02-27 07:31:00,
2013-02-27 02:41:00,43.0,35.0,30.18,SSE,164,1.0,5.0,74,-99.99,,,-99.99,,2013-02-27 07:41:00,
2013-02-27 02:51:00,43.0,36.0,30.18,SSE,159,5.0,11.0,75,-99.99,,,-99.99,,2013-02-27 07:51:00,
2013-02-27 03:01:00,43.0,36.0,30.18,South,182,0.0,6.0,77,-99.99,,,-99.99,,2013-02-27 08:01:00,
2013-02-27 03:11:00,43.0,36.0,30.18,South,182,0.0,6.0,77,-99.99,,,-99.99,,2013-02-27 08:11:00,
2013-02-27 03:21:00,42.0,36.0,30.18,SSE,160,0.0,4.0,78,-99.99,,,-99.99,,2013-02-27 08:21:00,
2013-02-27 03:31:00,42.0,38.0,30.19,SSE,150,1.0,6.0,84,-99.99,,,-99.99,,2013-02-27 08:31:00,
2013-02-27 03:41:00,42.0,38.0,30.19,SSE,150,1.0,6.0,84,-99.99,,,-99.99,,2013-02-27 08:41:00,
2013-02-27 03:52:00,41.0,37.0,30.19,SSW,197,0.0,6.0,85,-99.99,,,-99.99,,2013-02-27 08:52:00,
2013-02-27 04:01:00,41.0,38.0,30.18,SSW,197,0.0,0.0,88,-99.99,,,-99.99,,2013-02-27 09:01:00,
2013-02-27 04:11:00,41.0,38.0,30.18,SSW,197,0.0,0.0,88,-99.99,,,-99.99,,2013-02-27 09:11:00,
2013-02-27 04:21:00,41.0,38.0,30.19,SSW,197,0.0,0.0,89,-99.99,,,-99.99,,2013-02-27 09:21:00,
2013-02-27 04:31:00,41.0,38.0,30.19,South,182,1.0,3.0,90,-99.99,,,-99.99,,2013-02-27 09:31:00,
2013-02-27 04:41:00,41.0,38.0,30.19,South,182,1.0,3.0,90,-99.99,,,-99.99,,2013-02-27 09:41:00,
2013-02-27 04:51:00,41.0,38.0,30.19,SSE,163,1.0,10.0,90,-99.99,,,-99.99,,2013-02-27 09:51:00,
2013-02-27 05:01:00,41.0,38.0,30.19,SSE,153,3.0,11.0,89,-99.99,,,-99.99,,2013-02-27 10:01:00,
2013-02-27 05:12:00,41.0,38.0,30.19,SSE,153,3.0,11.0,89,-99.99,,,-99.99,,2013-02-27 10:12:00,
2013-02-27 05:21:00,40.0,37.0,30.19,SSE,152,3.0,9.0,90,-99.99,,,-99.99,,2013-02-27 10:21:00,
2013-02-27 05:31:00,40.0,37.0,30.19,WSW,241,1.0,6.0,90,-99.99,,,-99.99,,2013-02-27 10:31:00,
2013-02-27 05:41:00,40.0,37.0,30.19,WSW,241,1.0,6.0,90,-99.99,,,-99.99,,2013-02-27 10:41:00,
2013-02-27 05:52:00,40.0,37.0,30.19,WSW,240,0.0,2.0,90,-99.99,,,-99.99,,2013-02-27 10:52:00,
2013-02-27 06:01:00,39.0,37.0,30.21,WSW,240,0.0,1.0,91,-99.99,,,-99.99,,2013-02-27 11:01:00,
2013-02-27 06:11:00,39.0,37.0,30.21,WSW,240,0.0,1.0,91,-99.99,,,-99.99,,2013-02-27 11:11:00,
2013-02-27 06:21:00,39.0,37.0,30.20,SSE,150,0.0,4.0,92,-99.99,,,-99.99,,2013-02-27 11:21:00,
2013-02-27 06:31:00,39.0,37.0,30.20,SSE,165,0.0,4.0,92,-99.99,,,-99.99,,2013-02-27 11:31:00,
2013-02-27 06:41:00,39.0,37.0,30.20,SSE,165,0.0,4.0,92,-99.99,,,-99.99,,2013-02-27 11:41:00,
2013-02-27 06:52:00,39.0,37.0,30.19,WSW,245,0.0,0.0,92,-99.99,,,-99.99,,2013-02-27 11:52:00,
2013-02-27 07:01:00,39.0,37.0,30.21,WSW,245,0.0,0.0,93,-99.99,,,-99.99,,2013-02-27 12:01:00,
2013-02-27 07:12:00,39.0,37.0,30.21,WSW,245,0.0,0.0,93,-99.99,,,-99.99,,2013-02-27 12:12:00,
2013-02-27 07:22:00,39.0,37.0,30.21,WSW,245,0.0,0.0,93,-99.99,,,-99.99,,2013-02-27 12:22:00,
2013-02-27 07:32:00,40.0,38.0,30.21,SSW,200,0.0,3.0,94,-99.99,,,-99.99,,2013-02-27 12:32:00,
2013-02-27 07:41:00,40.0,38.0,30.21,SSW,200,0.0,3.0,94,-99.99,,,-99.99,,2013-02-27 12:41:00,
2013-02-27 07:52:00,40.0,38.0,30.22,SSW,200,0.0,0.0,94,-99.99,,,-99.99,,2013-02-27 12:52:00,
2013-02-27 08:02:00,40.0,38.0,30.22,SSW,200,0.0,1.0,94,-99.99,,,-99.99,,2013-02-27 13:02:00,
2013-02-27 08:11:00,40.0,38.0,30.22,SSW,200,0.0,1.0,94,-99.99,,,-99.99,,2013-02-27 13:11:00,
2013-02-27 08:21:00,40.0,38.0,30.23,SSW,200,0.0,0.0,94,-99.99,,,-99.99,,2013-02-27 13:21:00,
2013-02-27 08:31:00,40.0,38.0,30.24,SSW,200,0.0,0.0,94,-99.99,,,-99.99,,2013-02-27 13:31:00,
2013-02-27 08:41:00,40.0,38.0,30.24,SSW,200,0.0,0.0,94,-99.99,,,-99.99,,2013-02-27 13:41:00,
2013-02-27 08:52:00,40.0,38.0,30.24,SSW,200,0.0,0.0,94,-99.99,,,-99.99,,2013-02-27 13:52:00,
2013-02-27 09:01:00,40.0,38.0,30.25,SSW,200,0.0,0.0,94,-99.99,,,-99.99,,2013-02-27 14:01:00,
2013-02-27 09:11:00,40.0,38.0,30.25,SSW,200,0.0,0.0,94,-99.99,,,-99.99,,2013-02-27 14:11:00,
2013-02-27 09:21:00,40.0,38.0,30.26,SSW,200,0.0,0.0,94,-99.99,,,-99.99,,2013-02-27 14:21:00,
2013-02-27 09:31:00,40.0,38.0,30.26,SSW,200,0.0,0.0,94,-99.99,,,-99.99,,2013-02-27 14:31:00,
2013-02-27 09:41:00,40.0,38.0,30.26,SSW,200,0.0,0.0,94,-99.99,,,-99.99,,2013-02-27 14:41:00,
2013-02-27 09:52:00,40.0,38.0,30.26,SSW,200,0.0,0.0,94,-99.99,,,-99.99,,2013-02-27 14:52:00,
2013-02-27 10:01:00,40.0,38.0,30.26,SSW,200,0.0,0.0,94,-99.99,,,-99.99,,2013-02-27 15:01:00,
2013-02-27 10:11:00,40.0,38.0,30.26,SSW,200,0.0,0.0,94,-99.99,,,-99.99,,2013-02-27 15:11:00,
2013-02-27 10:21:00,40.0,39.0,30.27,SSW,200,0.0,1.0,95,-99.99,,,-99.99,,2013-02-27 15:21:00,
2013-02-27 10:31:00,40.0,38.0,30.27,SSW,200,0.0,0.0,94,-99.99,,,-99.99,,2013-02-27 15:31:00,
2013-02-27 10:41:00,40.0,38.0,30.27,SSW,200,0.0,0.0,94,-99.99,,,-99.99,,2013-02-27 15:41:00,
2013-02-27 10:51:00,40.0,38.0,30.27,SSW,200,0.0,2.0,94,-99.99,,,-99.99,,2013-02-27 15:51:00,
2013-02-27 11:01:00,41.0,39.0,30.27,SSW,200,0.0,2.0,94,-99.99,,,-99.99,,2013-02-27 16:01:00,
2013-02-27 11:11:00,41.0,39.0,30.27,SSW,200,0.0,2.0,94,-99.99,,,-99.99,,2013-02-27 16:11:00,
2013-02-27 11:21:00,41.0,39.0,30.27,SSW,200,0.0,1.0,93,-99.99,,,-99.99,,2013-02-27 16:21:00,
2013-02-27 11:32:00,41.0,39.0,30.27,SSW,200,0.0,1.0,93,-99.99,,,-99.99,,2013-02-27 16:32:00,
2013-02-27 11:41:00,41.0,39.0,30.27,SSW,200,0.0,1.0,93,-99.99,,,-99.99,,2013-02-27 16:41:00,
2013-02-27 11:52:00,42.0,40.0,30.27,South,180,2.0,3.0,93,-99.99,,,-99.99,,2013-02-27 16:52:00,
2013-02-27 12:01:00,42.0,39.0,30.27,ESE,106,0.0,3.0,90,-99.99,,,-99.99,,2013-02-27 17:01:00,
2013-02-27 12:11:00,42.0,39.0,30.27,ESE,106,0.0,3.0,90,-99.99,,,-99.99,,2013-02-27 17:11:00,
2013-02-27 12:21:00,42.0,39.0,30.27,East,93,1.0,3.0,90,-99.99,,,-99.99,,2013-02-27 17:21:00,
2013-02-27 12:32:00,44.0,40.0,30.26,SSE,158,1.0,5.0,87,-99.99,,,-99.99,,2013-02-27 17:32:00,
2013-02-27 12:41:00,44.0,40.0,30.26,SSE,158,1.0,5.0,87,-99.99,,,-99.99,,2013-02-27 17:41:00,
2013-02-27 12:52:00,44.0,40.0,30.25,East,84,3.0,5.0,85,-99.99,,,-99.99,,2013-02-27 17:52:00,
2013-02-27 13:01:00,45.0,40.0,30.25,SSE,163,2.0,8.0,82,-99.99,,,-99.99,,2013-02-27 18:01:00,
2013-02-27 13:11:00,45.0,40.0,30.25,SSE,163,2.0,8.0,82,-99.99,,,-99.99,,2013-02-27 18:11:00,
2013-02-27 13:21:00,46.0,38.0,30.26,SE,140,2.0,6.0,74,-99.99,,,-99.99,,2013-02-27 18:21:00,
2013-02-27 13:31:00,46.0,38.0,30.25,SSE,150,3.0,10.0,74,-99.99,,,-99.99,,2013-02-27 18:31:00,
2013-02-27 13:41:00,46.0,38.0,30.25,SSE,150,3.0,10.0,74,-99.99,,,-99.99,,2013-02-27 18:41:00,
2013-02-27 13:52:00,46.0,38.0,30.26,NE,50,3.0,7.0,73,-99.99,,,-99.99,,2013-02-27 18:52:00,
2013-02-27 14:01:00,48.0,39.0,30.26,SSE,167,3.0,7.0,72,-99.99,,,-99.99,,2013-02-27 19:01:00,
2013-02-27 14:11:00,48.0,39.0,30.26,SSE,167,3.0,7.0,72,-99.99,,,-99.99,,2013-02-27 19:11:00,
2013-02-27 14:21:00,47.0,38.0,30.26,SSE,165,3.0,7.0,71,-99.99,,,-99.99,,2013-02-27 19:21:00,
2013-02-27 14:32:00,47.0,38.0,30.27,SE,135,1.0,6.0,71,-99.99,,,-99.99,,2013-02-27 19:32:00,
2013-02-27 14:41:00,47.0,38.0,30.27,SE,135,1.0,6.0,71,-99.99,,,-99.99,,2013-02-27 19:41:00,
2013-02-27 14:51:00,47.0,37.0,30.28,SSE,162,0.0,6.0,69,-99.99,,,-99.99,,2013-02-27 19:51:00,
2013-02-27 15:01:00,47.0,38.0,30.28,SE,126,3.0,7.0,70,-99.99,,,-99.99,,2013-02-27 20:01:00,
2013-02-27 15:11:00,47.0,38.0,30.28,SE,126,3.0,7.0,70,-99.99,,,-99.99,,2013-02-27 20:11:00,
2013-02-27 15:21:00,47.0,38.0,30.28,ESE,120,2.0,5.0,71,-99.99,,,-99.99,,2013-02-27 20:21:00,
2013-02-27 15:31:00,47.0,38.0,30.28,SSE,149,3.0,6.0,70,-99.99,,,-99.99,,2013-02-27 20:31:00,
2013-02-27 15:41:00,47.0,38.0,30.28,SSE,149,3.0,6.0,70,-99.99,,,-99.99,,2013-02-27 20:41:00,
2013-02-27 15:52:00,47.0,38.0,30.28,SSE,161,1.0,8.0,71,-99.99,,,-99.99,,2013-02-27 20:52:00,
2013-02-27 16:01:00,47.0,37.0,30.27,SSE,163,3.0,10.0,69,-99.99,,,-99.99,,2013-02-27 21:01:00,
2013-02-27 16:11:00,47.0,37.0,30.27,SSE,163,3.0,10.0,69,-99.99,,,-99.99,,2013-02-27 21:11:00,
2013-02-27 16:21:00,47.0,37.0,30.27,SE,140,3.0,10.0,67,-99.99,,,-99.99,,2013-02-27 21:21:00,
2013-02-27 16:31:00,48.0,38.0,30.27,SSE,160,5.0,8.0,67,-99.99,,,-99.99,,2013-02-27 21:31:00,
2013-02-27 16:41:00,48.0,38.0,30.27,SSE,160,5.0,8.0,67,-99.99,,,-99.99,,2013-02-27 21:41:00,
2013-02-27 16:52:00,48.0,38.0,30.26,SSE,148,5.0,11.0,67,-99.99,,,-99.99,,2013-02-27 21:52:00,
2013-02-27 17:01:00,47.0,40.0,30.26,SE,144,0.0,7.0,76,-99.99,,,-99.99,,2013-02-27 22:01:00,
2013-02-27 17:11:00,47.0,40.0,30.26,SE,144,0.0,7.0,76,-99.99,,,-99.99,,2013-02-27 22:11:00,
2013-02-27 17:21:00,47.0,40.0,30.26,SSE,153,1.0,3.0,76,-99.99,,,-99.99,,2013-02-27 22:21:00,
2013-02-27 17:31:00,47.0,40.0,30.25,SSE,156,1.0,2.0,76,-99.99,,,-99.99,,2013-02-27 22:31:00,
2013-02-27 17:41:00,47.0,40.0,30.25,SSE,156,1.0,2.0,76,-99.99,,,-99.99,,2013-02-27 22:41:00,
2013-02-27 17:51:00,47.0,40.0,30.24,SSE,149,0.0,2.0,76,-99.99,,,-99.99,,2013-02-27 22:51:00,
2013-02-27 18:01:00,47.0,39.0,30.24,SSE,149,0.0,0.0,75,-99.99,,,-99.99,,2013-02-27 23:01:00,
2013-02-27 18:11:00,47.0,39.0,30.24,SSE,149,0.0,0.0,75,-99.99,,,-99.99,,2013-02-27 23:11:00,
2013-02-27 18:21:00,47.0,41.0,30.25,SSE,149,0.0,0.0,78,-99.99,,,-99.99,,2013-02-27 23:21:00,
2013-02-27 18:31:00,47.0,41.0,30.25,SSE,149,0.0,0.0,80,-99.99,,,-99.99,,2013-02-27 23:31:00,
2013-02-27 18:42:00,47.0,41.0,30.25,SSE,149,0.0,0.0,80,-99.99,,,-99.99,,2013-02-27 23:42:00,
2013-02-27 18:52:00,47.0,42.0,30.25,SSE,149,0.0,0.0,84,-99.99,,,-99.99,,2013-02-27 23:52:00,
2013-02-27 19:01:00,46.0,42.0,30.24,NE,54,0.0,2.0,85,-99.99,,,-99.99,,2013-02-28 00:01:00,
2013-02-27 19:11:00,46.0,42.0,30.24,NE,54,0.0,2.0,85,-99.99,,,-99.99,,2013-02-28 00:11:00,
2013-02-27 19:21:00,45.0,41.0,30.24,NE,54,0.0,2.0,86,-99.99,,,-99.99,,2013-02-28 00:21:00,
2013-02-27 19:31:00,45.0,41.0,30.24,NE,54,0.0,0.0,87,-99.99,,,-99.99,,2013-02-28 00:31:00,
2013-02-27 19:42:00,45.0,41.0,30.24,NE,54,0.0,0.0,87,-99.99,,,-99.99,,2013-02-28 00:42:00,
2013-02-27 19:51:00,45.0,42.0,30.24,NE,54,0.0,1.0,88,-99.99,,,-99.99,,2013-02-28 00:51:00,
2013-02-27 20:01:00,45.0,42.0,30.24,NE,53,0.0,0.0,89,-99.99,,,-99.99,,2013-02-28 01:01:00,
2013-02-27 20:11:00,45.0,42.0,30.24,NE,53,0.0,0.0,89,-99.99,,,-99.99,,2013-02-28 01:11:00,
2013-02-27 20:21:00,45.0,42.0,30.24,NE,54,0.0,0.0,90,-99.99,,,-99.99,,2013-02-28 01:21:00,
2013-02-27 20:31:00,45.0,42.0,30.24,NE,53,0.0,0.0,90,-99.99,,,-99.99,,2013-02-28 01:31:00,
2013-02-27 20:41:00,45.0,42.0,30.24,NE,53,0.0,0.0,90,-99.99,,,-99.99,,2013-02-28 01:41:00,
2013-02-27 20:52:00,45.0,42.0,30.24,NE,54,0.0,0.0,90,-99.99,,,-99.99,,2013-02-28 01:52:00,
2013-02-27 21:01:00,44.0,41.0,30.24,NE,54,0.0,0.0,90,-99.99,,,-99.99,,2013-02-28 02:01:00,
2013-02-27 21:11:00,44.0,41.0,30.24,NE,54,0.0,0.0,90,-99.99,,,-99.99,,2013-02-28 02:11:00,
2013-02-27 21:21:00,44.0,42.0,30.24,NE,53,0.0,1.0,92,-99.99,,,-99.99,,2013-02-28 02:21:00,
2013-02-27 21:31:00,44.0,42.0,30.24,NE,54,0.0,0.0,92,-99.99,,,-99.99,,2013-02-28 02:31:00,
2013-02-27 21:41:00,44.0,42.0,30.24,NE,54,0.0,0.0,92,-99.99,,,-99.99,,2013-02-28 02:41:00,
2013-02-27 21:52:00,44.0,42.0,30.24,NE,54,0.0,0.0,92,-99.99,,,-99.99,,2013-02-28 02:52:00,
2013-02-27 22:01:00,44.0,42.0,30.24,NE,54,0.0,0.0,93,-99.99,,,-99.99,,2013-02-28 03:01:00,
2013-02-27 22:11:00,44.0,42.0,30.24,NE,54,0.0,0.0,93,-99.99,,,-99.99,,2013-02-28 03:11:00,
2013-02-27 22:21:00,44.0,42.0,30.24,NE,54,0.0,1.0,93,-99.99,,,-99.99,,2013-02-28 03:21:00,
2013-02-27 22:31:00,44.0,42.0,30.24,NE,53,0.0,1.0,94,-99.99,,,-99.99,,2013-02-28 03:31:00,
2013-02-27 22:41:00,44.0,42.0,30.24,NE,53,0.0,1.0,94,-99.99,,,-99.99,,2013-02-28 03:41:00,
2013-02-27 22:51:00,44.0,42.0,30.25,NE,53,0.0,1.0,94,-99.99,,,-99.99,,2013-02-28 03:51:00,
2013-02-27 23:01:00,44.0,43.0,30.25,NE,53,0.0,1.0,95,-99.99,,,-99.99,,2013-02-28 04:01:00,
2013-02-27 23:11:00,44.0,43.0,30.25,NE,53,0.0,1.0,95,-99.99,,,-99.99,,2013-02-28 04:11:00,
2013-02-27 23:21:00,44.0,43.0,30.26,NE,53,0.0,1.0,95,-99.99,,,-99.99,,2013-02-28 04:21:00,
2013-02-27 23:31:00,44.0,43.0,30.26,NE,53,0.0,1.0,95,-99.99,,,-99.99,,2013-02-28 04:31:00,
2013-02-27 23:41:00,44.0,43.0,30.26,NE,53,0.0,1.0,95,-99.99,,,-99.99,,2013-02-28 04:41:00,
2013-02-27 23:52:00,44.0,43.0,30.26,NE,53,0.0,1.0,95,-99.99,,,-99.99,,2013-02-28 04:52:00,